events-overview

East Cooper Coastal Triathlon

 

Overall Men

Isle of Palms County Park 4/18/2010 08:30AM

** Results are for the private use of participants and are the Intellectual Property of Set Up Events. Unauthorized use of these results is prohibited.

Place Bib Age Co NAME Rank SWIM T1 Rank BIKE T2 Rank RUN PENALTY TIME DQ
19638 ADAM MARTIN100:13:2900:00:38100:39:32    01:21:16 
215331 JOHN WATKINS400:16:0000:01:12600:41:4100:00:48100:23:53 01:23:32 
33337 DIRK DEWITT700:16:1400:01:051400:43:4200:00:49200:24:04 01:25:53 
414243 ROBERT TEACHMAN2300:17:2500:01:02300:41:2000:00:45600:25:42 01:26:12 
517555 STEVE CASKIE600:16:0200:00:49400:41:2800:00:411700:27:19 01:26:17 
62643 JIM DANIEL1400:16:3600:00:55700:42:0100:00:361100:26:39 01:26:46 
73033 JUSTIN DAVIS4400:18:4200:01:05200:40:4800:00:35800:26:14 01:27:23 
816541 GREG BROWN1200:16:3400:01:081800:44:1100:00:54300:25:02 01:27:47 
95030 JOSHUA GRIFFIN300:15:2900:00:58500:41:3900:00:413600:29:33 01:28:17 
109435 MATT M NER3200:17:5000:00:58800:42:5400:00:39900:26:18 01:28:37 
1113432 JOSH SHERROD500:16:0100:01:272100:44:3500:01:071000:26:19 01:29:28 
125933 EDMUND HIPP3800:18:0600:01:081000:43:0200:00:461200:26:42 01:29:43 
1316942 JODY MCAULEY900:16:1800:01:22900:42:5800:00:462700:28:31 01:29:53 
146141 WINSTON HOLLIDAY3100:17:4700:01:251600:44:0300:00:48700:26:02 01:30:04 
1511546 GARY PETMECKY200:14:5800:00:553000:45:3500:00:382300:28:06 01:30:10 
163634 JACOB DRIGGERS3000:17:4400:01:152800:45:1700:00:49500:25:29 01:30:32 
179129 JOSHUA LUNDEBY2800:17:4000:01:281700:44:08    01:30:38 
187130 MATTHEW JARRETT4600:18:4400:01:552000:44:3300:00:39400:25:12 01:31:01 
1915237 JUSTIN WARD2200:17:2200:01:162200:44:3600:00:491400:27:05 01:31:07 
2014426 JOHN TREPEN4800:18:4700:01:27   6000:32:10 01:31:39 
2113550 KENDALL SHOWS3600:18:0100:00:591300:43:30    01:31:39 
2217440 BOBBY FANCHER1900:16:5800:01:184300:46:51    01:32:12 
2315729 KURT YOCKEL1800:16:5700:01:113600:46:1000:00:511600:27:11 01:32:19 
2413047 TODD SALVATI1700:16:5100:01:342400:44:4800:00:532500:28:17 01:32:20 
2512425 RICHARD ROSE2700:17:3600:01:063100:45:4600:01:021900:27:33 01:33:01 
261740 RICK CHRISTENS CHRISTENSEN5000:19:0900:00:461200:43:1600:01:093000:28:51 01:33:09 
2714838 ERIC WALMET800:16:1500:02:173800:46:3200:00:332200:28:06 01:33:41 
286258 PETER HOLSTON1000:16:2100:02:291900:44:2800:01:113200:29:18 01:33:45 
2915138 RON WALTERS5900:19:3600:02:261100:43:1600:00:562000:27:43 01:33:56 
3012739 SEAN RYAN1500:16:4500:01:193900:46:4600:01:182900:28:51 01:34:57 
PlaceBibAgeCoNAMERankSWIMT1RankBIKET2RankRUNPENALTYTIMEDQ
313457 JERRY DONOHUE6400:19:4400:01:431500:43:4300:00:573400:29:27 01:35:32 
3217730 MICHAEL ZOLTANSKI6200:19:4000:01:162500:45:07    01:36:04 
334924 CHRIS GRIEGO2900:17:4300:02:104000:46:4700:01:152400:28:11 01:36:05 
342328 MITCHELL CROFTS2100:17:1000:01:573500:46:0900:00:584500:30:40 01:36:52 
356646 BILL HUNT4200:18:2700:01:352700:45:1400:00:544700:30:51 01:37:00 
367044 PERRY JAMESON4100:18:1900:01:573400:46:0700:01:163700:29:40 01:37:18 
378438 ROBERT LANT4500:18:4300:01:295100:47:1400:01:013300:29:20 01:37:45 
382041CWESLEY COOK7700:20:1700:01:303300:45:5900:01:293100:28:59 01:38:11 
39339 JASON ANDREWS6300:19:4200:01:402300:44:4400:00:595400:31:30 01:38:33 
404429 ROSS GESKE8000:20:2600:01:235800:48:1900:01:031800:27:23 01:38:33 
4111322 RYAN PETERSON3900:18:1400:01:526500:48:5200:01:112600:28:27 01:38:35 
426451 LUKE HOWARD5300:19:2300:01:533200:45:5300:01:284300:30:26 01:39:01 
4316744 SHANE MORRIS7600:20:1300:02:324400:47:0300:01:272100:27:54 01:39:06 
4416238 MICHEAL MCFALL2500:17:3000:02:404200:46:5100:01:274600:30:43 01:39:10 
459740 SILVIO MASUR2000:17:0600:01:524500:47:0600:01:065800:32:03 01:39:12 
4610436 ALLEN MCWHIRT5200:19:2000:00:582600:45:1200:00:587000:32:59 01:39:26 
476031 MATTHEW HOFFMEIER5500:19:2700:01:383700:46:2100:02:324000:29:57 01:39:54 
488646 MATTHEW LEDFORD3300:17:5200:01:535300:47:1700:02:015100:31:18 01:40:19 
499325 SCOTT MACRAE4700:18:4500:01:456000:48:2700:01:114400:30:34 01:40:39 
503723 SIDNEY DUDLEY6600:19:5000:02:574100:46:5000:01:393500:29:29 01:40:42 
511343 BILL BRUFFEY6900:19:5600:02:144900:47:1300:01:214200:30:20 01:41:03 
5210224CANDREW MCKAIN2600:17:3300:01:237700:50:4300:00:564900:30:57 01:41:30 
532144 DAN CORDELL9100:21:1600:02:074700:47:1100:01:123900:29:51 01:41:35 
543845 BRIAN DUFFY5700:19:3200:02:495700:48:1300:01:514100:29:58 01:42:21 
559049 JUSTIN LUCEY9500:21:2300:02:122900:45:21    01:42:51 
564221 NATHAN FRANDINO5800:19:3500:02:308600:51:4800:00:472800:28:33 01:43:12 
5712224 AARON RIVA6000:19:3800:01:117500:50:2600:01:214800:30:53 01:43:29 
5812145 SAMUEL RICHARDSON7400:20:0900:02:544600:47:0600:02:085500:31:45 01:44:02 
5911153 GEORGE OLIVER6800:19:5100:02:106100:48:29    01:44:05 
601053 CHRIS BLACKMON7300:20:0500:03:364800:47:1100:02:005300:31:29 01:44:20 
6113143 JONATHON SANTILLI8200:20:2900:01:386600:49:0100:01:156100:32:16 01:44:37 
PlaceBibAgeCoNAMERankSWIMT1RankBIKET2RankRUNPENALTYTIMEDQ
6214627CBRYON VOYER6100:19:3900:01:595500:48:0100:01:317500:33:29 01:44:37 
6313726 THOMAS SKELTON III6500:19:4600:01:166700:49:1400:00:418300:34:13 01:45:07 
645242CKIP HALEY7500:20:1000:02:046300:48:3400:01:067400:33:21 01:45:11 
658257 JOE KROLL4900:18:5100:01:535400:47:4500:01:3210000:36:42 01:46:42 
6611946 MARK REED3700:18:0200:01:247300:49:5900:01:079500:36:14 01:46:43 
6710640 JEFFREY MONTS9400:21:2200:02:546400:48:4100:01:166600:32:48 01:46:58 
685428 GREGORY HAMMOND1600:16:4700:02:237900:50:50    01:47:01 
6911221 ADAM PATT8500:20:5500:02:028100:51:0600:01:175600:31:48 01:47:06 
702719 ALLAN DAPORE7200:20:0400:06:419200:52:2700:01:121300:26:49 01:47:10 
715129CROB GUYETTE5100:19:1500:01:137000:49:4700:01:089000:35:53 01:47:13 
726749 JOSEPH HURTEAU JR8900:21:0700:01:425000:47:1400:01:149400:36:06 01:47:21 
73442 CHRIS BAIN11800:24:2500:02:255200:47:1400:01:076500:32:30 01:47:39 
7410738CPAUL MORGAN2400:17:3000:01:259000:52:1700:00:539200:35:58 01:48:00 
7514324 BRIAN TEMPLE8400:20:4700:02:3911200:56:2800:01:111500:27:08 01:48:11 
76246CJEFFERY ALBERTSON9200:21:1900:02:175900:48:2600:01:248600:34:47 01:48:11 
77824 ANDREW BERCOVICI8700:21:0200:02:528900:52:1200:01:195000:31:14 01:48:37 
7816639 DUSTIN WILDER9000:21:1200:03:206900:49:2900:01:526800:32:56 01:48:47 
7918026 JOHN MCDANIEL11000:23:2700:03:128000:51:0300:01:473800:29:43 01:49:11 
807322 DANIEL JOHNSON1100:16:3100:01:588400:51:2900:00:5410800:38:33 01:49:24 
8113644 JIM SIMONS9700:21:3300:01:378200:51:1200:01:208100:33:56 01:49:36 
8215562 RICK WIDMAN7800:20:2200:02:217200:49:5300:02:228700:35:02 01:49:58 
832426 ZACH CUNNINGHAM6700:19:5100:01:586800:49:2000:01:5610200:37:02 01:50:04 
848135 CHRISTOPHER KOREY5400:19:2600:02:1610500:54:3300:01:376300:32:18 01:50:08 
854647 JOHN GOUGH7900:20:2600:03:1410400:54:2700:00:535200:31:19 01:50:17 
867253 JOSEPH JASTREBOSKI8300:20:4000:02:435600:48:1000:00:5810500:38:02 01:50:31 
876940CVINCENT JAJUGA9900:21:3800:02:098300:51:2200:01:438200:33:58 01:50:47 
885334 ROB HAMILL7000:19:5600:03:038800:52:0400:02:088000:33:54 01:51:04 
897546 MARK JOYE4300:18:2900:02:267800:50:4300:01:4210600:38:18 01:51:37 
9017119 LUCAS CRAWFORD1300:16:3500:02:0311100:56:2600:01:128900:35:41 01:51:55 
9115935 WAYNE ZEHNER11100:23:5300:03:157600:50:2900:01:366700:32:50 01:52:01 
927935CJASON KENDALL4000:18:1700:01:269100:52:1900:01:0710900:38:57 01:52:04 
PlaceBibAgeCoNAMERankSWIMT1RankBIKET2RankRUNPENALTYTIMEDQ
9318231 BRADLEY SALE8800:21:0500:03:139700:53:3400:01:267700:33:43 01:52:59 
9413930 WESLEY STRONG11300:23:5400:03:029500:52:5200:01:525700:31:50 01:53:28 
954336 JEFFREY FUQUA10900:23:2000:01:468500:51:4000:00:509100:35:56 01:53:31 
969529 TIMOTHY MAHAN3500:18:0000:03:4011600:56:4800:01:227800:33:46 01:53:33 
971417 TREY BRUFFEY10000:21:4300:02:379800:53:3700:01:228500:34:45 01:54:02 
984737 DAVID GREGG10700:23:1800:02:536200:48:3100:02:2310300:37:03 01:54:07 
998841CMARK LOCKETT7100:20:0000:03:027100:49:4900:01:4011100:39:39 01:54:08 
1006547 MIKE HUDGINS9600:21:2700:02:037400:50:2200:02:1010700:38:24 01:54:25 
10117331 GREG WRIGHT5600:19:2900:03:379900:53:4900:01:229900:36:22 01:54:38 
10216050 JOHN ZEMP11900:24:3100:02:4410300:54:2600:01:365900:32:05 01:55:20 
10312627 JAY RYAN11600:24:1300:02:289400:52:5100:01:418800:35:02 01:56:14 
10417857 BOB LLOYD11500:24:1200:03:088700:51:5700:01:139700:36:21 01:56:49 
1057428CGRIER JONES12200:25:0600:03:5710100:54:0700:00:487100:33:00 01:56:56 
1064838 DENNIS GREGORY11700:24:2000:03:459600:52:5500:03:027200:33:04 01:57:04 
1073936 THOMAS DURANTE11200:23:5400:03:4210000:54:0200:01:408400:34:27 01:57:44 
1085522 LANCE HARPE11400:24:0900:04:0511400:56:3600:00:597300:33:10 01:58:57 
10910935 EDDIE O'NEILL8600:20:5900:02:5012301:01:0500:01:176900:32:58 01:59:07 
11014029CBRENDAN SULLIVAN10800:23:2000:02:0312000:59:1500:01:057600:33:34 01:59:15 
1112920 WILLIAM DAPORE10200:22:0700:06:4310800:55:5000:01:037900:33:50 01:59:30 
11217019 SHANE ROSENCRANCE8100:20:2700:03:3012100:59:4700:01:199800:36:21 02:01:22 
11310831CNICHOLAS NORRIS10600:23:1100:02:329300:52:2800:01:3111500:42:14 02:01:54 
1143165 KENNETH DECKO12800:26:0400:02:2711500:56:3900:01:419300:35:59 02:02:49 
1153535CSTEVE DRENGA10500:22:5500:03:1612201:00:0200:01:249600:36:17 02:03:51 
1169229CJEFF LYONS9800:21:3500:03:3411700:56:4800:02:3211000:39:28 02:03:56 
117955 CARL BERRY12100:24:4200:04:3910200:54:2100:01:5711200:39:39 02:05:17 
1182533CWILL CUTLER10100:21:4600:04:1410600:55:0100:01:3211700:43:14 02:05:45 
1195834 TRAVIS HILKA10300:22:2100:02:4311300:56:3200:01:5811600:42:37 02:06:09 
1202857 TALLY DAPORE12300:25:1400:05:5910700:55:4500:02:3910400:37:57 02:07:33 
12117920 RYAN KARST3400:17:5900:01:4712401:03:1000:01:1011800:43:32 02:07:36 
12216418 HUNTER POPE12400:25:4500:02:3212601:07:3100:02:226400:32:18 02:10:27 
12316318 KYLE GAWINSKI12500:25:4500:02:3312701:09:1400:00:386200:32:18 02:10:27 
PlaceBibAgeCoNAMERankSWIMT1RankBIKET2RankRUNPENALTYTIMEDQ
1248540 SCOTT LAY12000:24:3700:02:5712501:05:0700:01:0611300:39:46 02:13:31 
12515638 SCOTT WINDSOR12600:25:5300:05:5111900:58:5500:02:2511400:41:09 02:14:11 
1261263 JIM BOSTON10400:22:5100:02:4811000:56:2500:02:2912100:52:15 02:16:46 
127638CHARVIN BARNES12700:25:5700:02:2610900:56:0500:02:2811900:50:20 02:17:14 
1283239 BRYAN DEREMER13100:30:4900:03:4011800:58:2500:02:2012000:50:52 02:26:04 
1297732 DENNIS KEEFE13000:30:1400:04:58   10100:36:49 02:27:38 
1301650 DAVID CHASE9300:21:2100:02:30        
1318928CMICHAEL LOVELESS12900:26:5700:03:22        

** Results are for the private use of participants and are the Intellectual Property of Set Up Events. Unauthorized use of these results is prohibited.